createdAt,value
2024-03-04T00:01:17.306Z,6.20
2024-03-04T00:03:19.250Z,6.20
2024-03-04T00:05:22.123Z,6.20
2024-03-04T00:07:26.921Z,6.10
2024-03-04T00:09:29.688Z,6.00
2024-03-04T00:11:32.473Z,6.00
2024-03-04T00:13:37.253Z,6.00
2024-03-04T00:15:40.116Z,6.00
2024-03-04T00:17:44.347Z,6.00
2024-03-04T00:19:46.169Z,6.00
2024-03-04T00:21:49.033Z,6.00
2024-03-04T00:23:52.215Z,6.00
2024-03-04T00:25:54.960Z,6.00
2024-03-04T00:27:58.076Z,6.00
2024-03-04T00:29:59.915Z,6.00
2024-03-04T00:32:02.665Z,6.10
2024-03-04T00:34:06.818Z,6.10
2024-03-04T00:36:09.887Z,6.20
2024-03-04T00:38:12.170Z,6.20
2024-03-04T00:40:15.164Z,6.10
2024-03-04T00:42:18.679Z,6.10
2024-03-04T00:44:22.046Z,6.10
2024-03-04T00:46:25.190Z,6.10
2024-03-04T00:48:28.182Z,6.10
2024-03-04T00:50:32.990Z,6.10
2024-03-04T00:52:38.484Z,6.10
2024-03-04T00:54:41.668Z,6.10
2024-03-04T00:56:45.015Z,6.10
2024-03-04T00:58:47.897Z,6.10
2024-03-04T01:00:50.705Z,6.20
2024-03-04T01:02:54.325Z,6.10
2024-03-04T01:04:57.138Z,6.10
2024-03-04T01:07:01.283Z,6.10
2024-03-04T01:09:05.100Z,6.00
2024-03-04T01:11:08.780Z,5.90
2024-03-04T01:13:11.625Z,5.80
2024-03-04T01:15:14.822Z,5.90
2024-03-04T01:17:18.211Z,5.90
2024-03-04T01:19:24.870Z,5.90
2024-03-04T01:21:27.686Z,5.90
2024-03-04T01:23:32.063Z,5.90
2024-03-04T01:25:34.013Z,5.90
2024-03-04T01:27:37.127Z,5.80
2024-03-04T01:29:40.622Z,5.80
2024-03-04T01:31:43.746Z,5.80
2024-03-04T01:33:48.056Z,5.70
2024-03-04T01:35:50.797Z,5.70
2024-03-04T01:37:53.546Z,5.70
2024-03-04T01:39:57.647Z,5.70
2024-03-04T01:42:00.394Z,5.70
2024-03-04T01:44:04.532Z,5.70
2024-03-04T01:46:07.574Z,5.70
2024-03-04T01:48:10.827Z,5.70
2024-03-04T01:50:13.779Z,5.70
2024-03-04T01:52:16.948Z,5.70
2024-03-04T01:54:19.771Z,5.70
2024-03-04T01:56:23.869Z,5.70
2024-03-04T01:58:26.658Z,5.70
2024-03-04T02:00:30.073Z,5.70
2024-03-04T02:02:32.825Z,5.60
2024-03-04T02:04:35.619Z,5.60
2024-03-04T02:06:38.757Z,5.50
2024-03-04T02:08:41.673Z,5.50
2024-03-04T02:10:43.736Z,5.40
2024-03-04T02:12:48.370Z,5.40
2024-03-04T02:14:50.181Z,5.30
2024-03-04T02:16:53.161Z,5.30
2024-03-04T02:18:56.238Z,5.30
2024-03-04T02:21:02.678Z,5.30
2024-03-04T02:23:07.358Z,5.30
2024-03-04T02:25:12.820Z,5.30
2024-03-04T02:27:15.623Z,5.30
2024-03-04T02:29:17.454Z,5.30
2024-03-04T02:31:20.298Z,5.30
2024-03-04T02:33:23.290Z,5.30
2024-03-04T02:35:28.351Z,5.30
2024-03-04T02:37:31.286Z,5.20
2024-03-04T02:39:34.513Z,5.20
2024-03-04T02:41:37.844Z,5.10
2024-03-04T02:43:40.735Z,5.10
2024-03-04T02:45:43.687Z,5.10
2024-03-04T02:47:46.532Z,5.10
2024-03-04T02:49:49.319Z,5.10
2024-03-04T02:51:52.111Z,5.00
2024-03-04T02:53:54.870Z,5.00
2024-03-04T02:55:58.948Z,5.00
2024-03-04T02:58:00.784Z,5.00
2024-03-04T03:00:04.180Z,5.00
2024-03-04T03:02:07.481Z,5.00
2024-03-04T03:04:10.298Z,5.00
2024-03-04T03:06:13.070Z,5.00
2024-03-04T03:08:14.865Z,5.00
2024-03-04T03:10:17.686Z,5.00
2024-03-04T03:12:21.820Z,5.00
2024-03-04T03:14:24.577Z,4.90
2024-03-04T03:16:27.372Z,4.90
2024-03-04T03:18:30.142Z,4.80
2024-03-04T03:20:32.900Z,4.80
2024-03-04T03:22:35.977Z,4.80
2024-03-04T03:24:38.774Z,4.80
2024-03-04T03:26:41.534Z,4.80
2024-03-04T03:28:45.758Z,4.80
2024-03-04T03:30:48.624Z,4.80
2024-03-04T03:32:51.373Z,4.70
2024-03-04T03:34:54.160Z,4.70
2024-03-04T03:36:56.945Z,4.60
2024-03-04T03:38:59.720Z,4.50
2024-03-04T03:41:02.635Z,4.50
2024-03-04T03:43:05.614Z,4.50
2024-03-04T03:45:09.929Z,4.50
2024-03-04T03:47:12.677Z,4.50
2024-03-04T03:49:16.427Z,4.60
2024-03-04T03:51:19.234Z,4.60
2024-03-04T03:53:24.185Z,4.60
2024-03-04T03:55:27.234Z,4.40
2024-03-04T03:57:37.797Z,4.40
2024-03-04T03:59:49.221Z,4.10
2024-03-04T04:01:54.316Z,4.10
2024-03-04T04:03:57.191Z,4.10
2024-03-04T04:06:00.504Z,4.10
2024-03-04T04:08:03.311Z,4.10
2024-03-04T04:10:06.836Z,4.10
2024-03-04T04:12:10.803Z,4.10
2024-03-04T04:14:13.562Z,4.10
2024-03-04T04:16:16.359Z,4.00
2024-03-04T04:18:20.565Z,4.00
2024-03-04T04:20:23.309Z,4.00
2024-03-04T04:22:28.094Z,4.00
2024-03-04T04:24:31.033Z,4.00
2024-03-04T04:26:34.991Z,4.00
2024-03-04T04:28:38.147Z,4.00
2024-03-04T04:30:41.566Z,4.00
2024-03-04T04:32:44.490Z,4.00
2024-03-04T04:34:48.645Z,4.10
2024-03-04T04:36:51.765Z,4.00
2024-03-04T04:38:54.496Z,4.00
2024-03-04T04:40:57.788Z,4.00
2024-03-04T04:43:00.624Z,3.90
2024-03-04T04:45:03.394Z,3.80
2024-03-04T04:47:06.362Z,3.80
2024-03-04T04:49:09.210Z,3.80
2024-03-04T04:51:13.278Z,3.80
2024-03-04T04:53:16.028Z,3.90
2024-03-04T04:55:19.407Z,3.90
2024-03-04T04:57:23.106Z,3.90
2024-03-04T04:59:25.860Z,3.90
2024-03-04T05:01:27.917Z,4.00
2024-03-04T05:03:47.061Z,3.90
2024-03-04T05:05:54.538Z,4.00
2024-03-04T05:07:58.733Z,4.00
2024-03-04T05:10:01.588Z,3.90
2024-03-04T05:12:03.673Z,3.90
2024-03-04T05:14:06.603Z,3.90
2024-03-04T05:16:09.818Z,3.90
2024-03-04T05:18:12.585Z,3.90
2024-03-04T05:20:17.018Z,3.80
2024-03-04T05:22:19.953Z,3.80
2024-03-04T05:24:24.057Z,3.90
2024-03-04T05:26:26.840Z,3.80
2024-03-04T05:28:29.673Z,3.80
2024-03-04T05:30:32.526Z,3.80
2024-03-04T05:32:35.301Z,3.80
2024-03-04T05:34:38.577Z,3.80
2024-03-04T05:36:44.944Z,3.90
2024-03-04T05:38:47.717Z,3.80
2024-03-04T05:40:51.967Z,3.70
2024-03-04T05:42:54.732Z,3.70
2024-03-04T05:44:56.508Z,3.70
2024-03-04T05:46:59.287Z,3.80
2024-03-04T05:49:02.145Z,3.80
2024-03-04T05:51:05.481Z,3.80
2024-03-04T05:53:08.227Z,3.80
2024-03-04T05:55:11.447Z,3.80
2024-03-04T05:57:15.954Z,3.80
2024-03-04T05:59:19.566Z,3.70
2024-03-04T06:01:22.417Z,3.70
2024-03-04T06:03:25.206Z,3.80
2024-03-04T06:05:28.211Z,3.70
2024-03-04T06:07:30.094Z,3.80
2024-03-04T06:09:32.872Z,3.70
2024-03-04T06:11:35.660Z,3.70
2024-03-04T06:13:39.821Z,3.70
2024-03-04T06:15:42.639Z,3.80
2024-03-04T06:17:45.408Z,3.80
2024-03-04T06:19:48.224Z,3.80
2024-03-04T06:22:01.224Z,3.70
2024-03-04T06:24:11.454Z,3.80
2024-03-04T06:26:13.509Z,3.90
2024-03-04T06:28:16.282Z,3.90
2024-03-04T06:30:20.466Z,3.90
2024-03-04T06:32:23.273Z,3.90
2024-03-04T06:34:27.424Z,4.00
2024-03-04T06:36:30.194Z,3.90
2024-03-04T06:38:32.981Z,3.90
2024-03-04T06:40:35.774Z,3.90
2024-03-04T06:42:38.539Z,3.90
2024-03-04T06:44:41.875Z,4.00
2024-03-04T06:46:46.121Z,4.00
2024-03-04T06:48:48.908Z,4.00
2024-03-04T06:50:50.709Z,4.10
2024-03-04T06:52:53.471Z,4.10
2024-03-04T06:54:56.219Z,4.20
2024-03-04T06:56:58.023Z,4.20
2024-03-04T06:59:00.798Z,4.30
2024-03-04T07:01:03.716Z,4.30
2024-03-04T07:03:07.939Z,4.30
2024-03-04T07:05:11.001Z,4.30
2024-03-04T07:07:13.790Z,4.30
2024-03-04T07:09:16.558Z,4.40
2024-03-04T07:11:19.977Z,4.50
2024-03-04T07:13:22.859Z,4.50
2024-03-04T07:15:25.649Z,4.70
2024-03-04T07:17:28.430Z,4.70
2024-03-04T07:19:31.710Z,4.80
2024-03-04T07:21:34.469Z,4.80
2024-03-04T07:23:38.535Z,4.90
2024-03-04T07:25:41.354Z,5.00
2024-03-04T07:27:44.325Z,4.90
2024-03-04T07:29:52.798Z,5.10
2024-03-04T07:32:01.776Z,5.00
2024-03-04T07:34:04.609Z,5.10
2024-03-04T07:36:10.269Z,5.10
2024-03-04T07:38:13.862Z,5.20
2024-03-04T07:40:16.841Z,5.30
2024-03-04T07:42:21.609Z,5.20
2024-03-04T07:44:24.400Z,5.30
2024-03-04T07:46:27.226Z,5.30
2024-03-04T07:48:30.000Z,5.50
2024-03-04T07:50:32.742Z,5.60
2024-03-04T07:52:36.872Z,5.60
2024-03-04T07:54:39.693Z,5.60
2024-03-04T07:56:42.449Z,5.70
2024-03-04T07:58:45.314Z,5.80
2024-03-04T08:00:47.147Z,5.90
2024-03-04T08:02:50.026Z,6.00
2024-03-04T08:04:51.896Z,6.00
2024-03-04T08:06:54.729Z,6.20
2024-03-04T08:08:58.805Z,6.20
2024-03-04T08:11:01.601Z,6.20
2024-03-04T08:13:04.891Z,6.20
2024-03-04T08:15:08.877Z,6.20
2024-03-04T08:17:12.265Z,6.30
2024-03-04T08:19:15.116Z,6.20
2024-03-04T08:21:17.927Z,6.20
2024-03-04T08:23:19.763Z,6.30
2024-03-04T08:25:23.905Z,6.40
2024-03-04T08:27:26.773Z,6.50
2024-03-04T08:29:29.921Z,6.40
2024-03-04T08:31:33.804Z,6.60
2024-03-04T08:33:36.702Z,6.60
2024-03-04T08:35:39.507Z,6.60
2024-03-04T08:37:43.498Z,6.60
2024-03-04T08:39:48.466Z,6.80
2024-03-04T08:41:52.617Z,6.90
2024-03-04T08:43:55.555Z,6.90
2024-03-04T08:45:58.338Z,7.00
2024-03-04T08:48:01.151Z,7.00
2024-03-04T08:50:04.538Z,7.00
2024-03-04T08:52:07.753Z,6.90
2024-03-04T08:54:11.844Z,6.90
2024-03-04T08:56:15.051Z,7.00
2024-03-04T08:58:19.176Z,7.00
2024-03-04T09:00:21.392Z,7.10
2024-03-04T09:02:24.485Z,7.10
2024-03-04T09:04:27.316Z,7.10
2024-03-04T09:06:30.162Z,7.20
2024-03-04T09:08:32.971Z,7.40
2024-03-04T09:10:37.676Z,7.70
2024-03-04T09:12:42.071Z,7.90
2024-03-04T09:14:46.153Z,8.00
2024-03-04T09:16:49.019Z,8.10
2024-03-04T09:18:52.199Z,8.10
2024-03-04T09:20:54.939Z,8.20
2024-03-04T09:22:57.684Z,8.30
2024-03-04T09:25:00.469Z,8.40
2024-03-04T09:27:03.506Z,8.60
2024-03-04T09:29:06.855Z,8.50
2024-03-04T09:31:10.978Z,8.50
2024-03-04T09:33:13.823Z,8.50
2024-03-04T09:35:17.130Z,8.50
2024-03-04T09:37:19.964Z,8.60
2024-03-04T09:39:22.722Z,8.70
2024-03-04T09:41:26.485Z,8.70
2024-03-04T09:43:30.253Z,8.70
2024-03-04T09:45:33.038Z,8.90
2024-03-04T09:47:39.086Z,9.00
2024-03-04T09:49:41.000Z,9.10
2024-03-04T09:51:43.804Z,9.20
2024-03-04T09:53:46.584Z,9.50
2024-03-04T09:55:49.428Z,9.50
2024-03-04T09:57:52.275Z,9.50
2024-03-04T09:59:55.038Z,9.40
2024-03-04T10:01:59.837Z,9.40
2024-03-04T10:04:04.875Z,9.40
2024-03-04T10:06:07.765Z,9.40
2024-03-04T10:08:10.616Z,9.30
2024-03-04T10:10:14.479Z,9.20
2024-03-04T10:12:17.311Z,9.30
2024-03-04T10:14:20.071Z,9.40
2024-03-04T10:16:22.820Z,9.40
2024-03-04T10:18:25.646Z,9.40
2024-03-04T10:20:29.777Z,9.40
2024-03-04T10:22:35.735Z,9.30
2024-03-04T10:24:38.579Z,9.40
2024-03-04T10:26:41.943Z,9.40
2024-03-04T10:28:46.230Z,9.40
2024-03-04T10:30:48.995Z,9.50
2024-03-04T10:32:52.648Z,9.50
2024-03-04T10:35:03.068Z,9.60
2024-03-04T10:37:07.308Z,9.50
2024-03-04T10:39:15.068Z,9.50
2024-03-04T10:41:18.884Z,9.40
2024-03-04T10:43:22.731Z,9.30
2024-03-04T10:45:24.701Z,9.20
2024-03-04T10:47:27.509Z,9.10
2024-03-04T10:49:30.687Z,9.00
2024-03-04T10:51:33.606Z,9.00
2024-03-04T10:53:36.864Z,9.10
2024-03-04T10:55:39.665Z,8.80
2024-03-04T10:57:44.731Z,8.60
2024-03-04T10:59:48.155Z,8.60
2024-03-04T11:01:51.032Z,8.50
2024-03-04T11:03:58.626Z,8.70
2024-03-04T11:06:02.106Z,8.70
2024-03-04T11:08:06.506Z,8.70
2024-03-04T11:10:15.968Z,8.70
2024-03-04T11:12:18.823Z,8.80
2024-03-04T11:14:30.939Z,8.70
2024-03-04T11:16:41.787Z,8.70
2024-03-04T11:18:52.079Z,8.80
2024-03-04T11:20:54.847Z,8.90
2024-03-04T11:22:57.629Z,9.00
2024-03-04T11:24:59.438Z,9.00
2024-03-04T11:27:03.533Z,9.10
2024-03-04T11:29:06.493Z,9.10
2024-03-04T11:31:11.642Z,9.00
2024-03-04T11:33:39.900Z,9.00
2024-03-04T11:35:42.748Z,9.00
2024-03-04T11:37:52.487Z,9.00
2024-03-04T11:39:57.298Z,9.10
2024-03-04T11:42:00.357Z,9.10
2024-03-04T11:44:04.575Z,9.20
2024-03-04T11:46:11.665Z,9.10
2024-03-04T11:48:29.247Z,9.10
2024-03-04T11:50:44.659Z,9.30
2024-03-04T11:52:47.536Z,9.30
2024-03-04T11:54:50.644Z,9.40
2024-03-04T11:56:52.447Z,9.50
2024-03-04T11:58:57.910Z,9.50
2024-03-04T12:01:08.894Z,9.60
2024-03-04T12:03:20.216Z,9.70
2024-03-04T12:05:23.005Z,9.70
2024-03-04T12:07:25.581Z,9.70
2024-03-04T12:09:45.361Z,9.70
2024-03-04T12:11:51.114Z,9.50
2024-03-04T12:13:55.152Z,9.50
2024-03-04T12:15:59.581Z,9.50
2024-03-04T12:18:03.746Z,9.40
2024-03-04T12:20:08.534Z,9.40
2024-03-04T12:22:11.436Z,9.30
2024-03-04T12:24:17.762Z,9.20
2024-03-04T12:26:20.505Z,9.20
2024-03-04T12:28:23.316Z,9.00
2024-03-04T12:30:27.326Z,9.00
2024-03-04T12:32:29.186Z,9.10
2024-03-04T12:34:33.345Z,9.00
2024-03-04T12:36:36.090Z,9.00
2024-03-04T12:38:39.538Z,9.00
2024-03-04T12:40:42.298Z,9.00
2024-03-04T12:42:45.072Z,8.90
2024-03-04T12:44:47.836Z,9.00
2024-03-04T12:46:50.892Z,9.00
2024-03-04T12:48:53.996Z,8.90
2024-03-04T12:50:58.087Z,8.90
2024-03-04T12:53:00.901Z,8.90
2024-03-04T12:55:03.767Z,8.80
2024-03-04T12:57:06.670Z,8.80
2024-03-04T12:59:09.446Z,8.80
2024-03-04T13:01:16.053Z,8.90
2024-03-04T13:03:18.907Z,8.90
2024-03-04T13:05:21.792Z,8.90
2024-03-04T13:07:25.928Z,8.90
2024-03-04T13:09:28.682Z,8.90
2024-03-04T13:11:30.483Z,8.90
2024-03-04T13:13:33.290Z,8.90
2024-03-04T13:15:40.936Z,8.90
2024-03-04T13:17:44.488Z,9.00
2024-03-04T13:19:46.483Z,9.00
2024-03-04T13:21:49.289Z,9.00
2024-03-04T13:23:53.418Z,9.00
2024-03-04T13:25:56.319Z,9.10
2024-03-04T13:27:59.090Z,9.00
2024-03-04T13:30:03.426Z,9.00
2024-03-04T13:32:06.511Z,9.00
2024-03-04T13:34:09.493Z,9.10
2024-03-04T13:36:12.288Z,9.10
2024-03-04T13:38:15.127Z,9.10
2024-03-04T13:40:19.262Z,9.20
2024-03-04T13:42:22.390Z,9.20
2024-03-04T13:44:25.185Z,9.20
2024-03-04T13:46:29.314Z,9.20
2024-03-04T13:48:32.170Z,9.20
2024-03-04T13:50:34.978Z,9.20
2024-03-04T13:52:37.118Z,9.20
2024-03-04T13:54:39.911Z,9.10
2024-03-04T13:56:43.975Z,9.20
2024-03-04T13:58:46.894Z,9.10
2024-03-04T14:00:49.960Z,9.10
2024-03-04T14:02:52.746Z,9.10
2024-03-04T14:04:55.522Z,9.10
2024-03-04T14:06:59.533Z,9.10
2024-03-04T14:09:02.557Z,9.10
2024-03-04T14:11:06.086Z,9.10
2024-03-04T14:13:14.603Z,9.10
2024-03-04T14:15:19.154Z,9.10
2024-03-04T14:17:22.048Z,9.00
2024-03-04T14:19:24.858Z,9.00
2024-03-04T14:21:27.639Z,9.00
2024-03-04T14:23:35.316Z,9.00
2024-03-04T14:25:40.904Z,9.00
2024-03-04T14:27:42.797Z,9.00
2024-03-04T14:29:47.490Z,9.00
2024-03-04T14:31:49.517Z,8.90
2024-03-04T14:33:53.827Z,8.90
2024-03-04T14:35:55.643Z,8.90
2024-03-04T14:37:58.369Z,8.90
2024-03-04T14:40:01.167Z,8.80
2024-03-04T14:42:04.840Z,8.80
2024-03-04T14:44:08.221Z,8.80
2024-03-04T14:46:12.400Z,8.70
2024-03-04T14:48:15.248Z,8.60
2024-03-04T14:50:18.487Z,8.50
2024-03-04T14:52:22.002Z,8.50
2024-03-04T14:54:24.827Z,8.50
2024-03-04T14:56:29.842Z,8.50
2024-03-04T14:58:32.724Z,8.50
2024-03-04T15:00:36.380Z,8.60
2024-03-04T15:02:41.167Z,8.50
2024-03-04T15:04:44.065Z,8.50
2024-03-04T15:06:46.825Z,8.50
2024-03-04T15:08:51.507Z,8.50
2024-03-04T15:10:57.033Z,8.50
2024-03-04T15:13:01.253Z,8.50
2024-03-04T15:15:06.492Z,8.50
2024-03-04T15:17:10.637Z,8.50
2024-03-04T15:19:15.170Z,8.50
2024-03-04T15:21:18.047Z,8.50
2024-03-04T15:23:20.825Z,8.50
2024-03-04T15:25:22.640Z,8.50
2024-03-04T15:27:25.441Z,8.50
2024-03-04T15:29:28.244Z,8.40
2024-03-04T15:31:31.707Z,8.40
2024-03-04T15:33:34.542Z,8.40
2024-03-04T15:35:38.838Z,8.40
2024-03-04T15:37:43.375Z,8.40
2024-03-04T15:39:46.137Z,8.30
2024-03-04T15:41:47.961Z,8.30
2024-03-04T15:43:53.489Z,8.40
2024-03-04T15:45:56.331Z,8.40
2024-03-04T15:47:59.132Z,8.40
2024-03-04T15:50:01.995Z,8.40
2024-03-04T15:52:07.101Z,8.40
2024-03-04T15:54:08.925Z,8.30
2024-03-04T15:56:11.686Z,8.30
2024-03-04T15:58:14.545Z,8.30
2024-03-04T16:00:18.057Z,8.30
2024-03-04T16:02:21.053Z,8.40
2024-03-04T16:04:23.865Z,8.30
2024-03-04T16:06:30.754Z,8.30
2024-03-04T16:08:34.850Z,8.30
2024-03-04T16:10:38.251Z,8.30
2024-03-04T16:12:41.151Z,8.30
2024-03-04T16:14:42.990Z,8.30
2024-03-04T16:16:45.775Z,8.30
2024-03-04T16:18:47.619Z,8.30
2024-03-04T16:20:50.380Z,8.20
2024-03-04T16:22:53.204Z,8.30
2024-03-04T16:24:57.377Z,8.20
2024-03-04T16:27:00.121Z,8.20
2024-03-04T16:29:02.860Z,8.20
2024-03-04T16:31:07.713Z,8.30
2024-03-04T16:33:10.558Z,8.20
2024-03-04T16:35:13.369Z,8.20
2024-03-04T16:37:17.036Z,8.20
2024-03-04T16:39:19.970Z,8.20
2024-03-04T16:41:24.248Z,8.20
2024-03-04T16:43:27.188Z,8.20
2024-03-04T16:45:31.327Z,8.10
2024-03-04T16:47:34.562Z,8.10
2024-03-04T16:49:37.320Z,8.10
2024-03-04T16:51:40.267Z,8.10
2024-03-04T16:53:43.009Z,8.20
2024-03-04T16:55:46.094Z,8.10
2024-03-04T16:57:50.541Z,8.10
2024-03-04T16:59:53.290Z,8.10
2024-03-04T17:01:56.164Z,8.10
2024-03-04T17:03:59.448Z,8.20
2024-03-04T17:06:02.345Z,8.20
2024-03-04T17:08:06.648Z,8.10
2024-03-04T17:10:12.545Z,8.20
2024-03-04T17:12:15.387Z,8.10
2024-03-04T17:14:19.729Z,8.10
2024-03-04T17:16:21.964Z,8.10
2024-03-04T17:18:24.782Z,8.10
2024-03-04T17:20:26.561Z,8.10
2024-03-04T17:22:29.334Z,8.10
2024-03-04T17:24:32.167Z,8.20
2024-03-04T17:26:34.907Z,8.20
2024-03-04T17:28:38.162Z,8.10
2024-03-04T17:30:41.310Z,8.10
2024-03-04T17:32:44.083Z,8.10
2024-03-04T17:34:46.986Z,8.10
2024-03-04T17:36:49.779Z,8.20
2024-03-04T17:38:53.498Z,8.20
2024-03-04T17:40:57.588Z,8.10
2024-03-04T17:43:00.397Z,8.10
2024-03-04T17:45:02.217Z,8.10
2024-03-04T17:47:07.012Z,8.20
2024-03-04T17:49:09.808Z,8.20
2024-03-04T17:51:14.736Z,8.20
2024-03-04T17:53:17.750Z,8.20
2024-03-04T17:55:20.553Z,8.10
2024-03-04T17:57:23.318Z,8.20
2024-03-04T17:59:26.088Z,8.10
2024-03-04T18:01:29.089Z,8.10
2024-03-04T18:03:32.276Z,8.10
2024-03-04T18:05:35.015Z,8.20
2024-03-04T18:07:39.556Z,8.20
2024-03-04T18:09:43.280Z,8.20
2024-03-04T18:11:46.055Z,8.20
2024-03-04T18:13:48.912Z,8.10
2024-03-04T18:15:52.903Z,8.10
2024-03-04T18:17:56.391Z,8.20
2024-03-04T18:20:00.697Z,8.10
2024-03-04T18:22:04.374Z,8.10
2024-03-04T18:24:07.816Z,8.10
2024-03-04T18:26:10.572Z,8.10
2024-03-04T18:28:13.392Z,8.10
2024-03-04T18:30:17.519Z,8.10
2024-03-04T18:32:20.285Z,8.10
2024-03-04T18:34:23.862Z,8.20
2024-03-04T18:36:28.045Z,8.20
2024-03-04T18:38:30.784Z,8.20
2024-03-04T18:40:33.932Z,8.10
2024-03-04T18:42:35.729Z,8.10
2024-03-04T18:44:38.593Z,8.10
2024-03-04T18:46:44.363Z,8.20
2024-03-04T18:48:46.238Z,8.10
2024-03-04T18:50:48.985Z,8.10
2024-03-04T18:52:53.953Z,8.10
2024-03-04T18:54:57.487Z,8.20
2024-03-04T18:57:00.230Z,8.20
2024-03-04T18:59:03.044Z,8.10
2024-03-04T19:01:05.863Z,8.20
2024-03-04T19:03:08.644Z,8.10
2024-03-04T19:05:12.737Z,8.20
2024-03-04T19:07:15.583Z,8.10
2024-03-04T19:09:21.674Z,8.20
2024-03-04T19:11:25.989Z,8.20
2024-03-04T19:13:29.827Z,8.10
2024-03-04T19:15:32.574Z,8.00
2024-03-04T19:17:35.454Z,8.00
2024-03-04T19:19:38.248Z,7.90
2024-03-04T19:21:40.993Z,7.80
2024-03-04T19:23:43.755Z,7.80
2024-03-04T19:25:47.954Z,7.70
2024-03-04T19:27:50.793Z,7.70
2024-03-04T19:29:53.580Z,7.80
2024-03-04T19:31:56.338Z,7.80
2024-03-04T19:33:59.438Z,7.90
2024-03-04T19:36:04.274Z,7.80
2024-03-04T19:38:07.017Z,7.90
2024-03-04T19:40:12.207Z,7.80
2024-03-04T19:42:16.437Z,7.80
2024-03-04T19:44:19.200Z,7.90
2024-03-04T19:46:23.441Z,7.80
2024-03-04T19:48:26.274Z,7.90
2024-03-04T19:50:29.291Z,8.00
2024-03-04T19:52:32.106Z,7.90
2024-03-04T19:54:35.008Z,8.00
2024-03-04T19:56:38.237Z,8.00
2024-03-04T19:58:45.493Z,7.90
2024-03-04T20:00:49.802Z,8.00
2024-03-04T20:02:52.700Z,7.90
2024-03-04T20:04:54.581Z,7.90
2024-03-04T20:06:59.171Z,7.90
2024-03-04T20:09:03.479Z,7.90
2024-03-04T20:11:07.625Z,7.90
2024-03-04T20:13:10.561Z,8.00
2024-03-04T20:15:14.738Z,7.90
2024-03-04T20:17:16.541Z,7.90
2024-03-04T20:19:20.293Z,7.90
2024-03-04T20:21:23.051Z,7.80
2024-03-04T20:23:24.925Z,7.80
2024-03-04T20:25:27.713Z,7.80
2024-03-04T20:27:30.488Z,7.90
2024-03-04T20:29:33.233Z,7.80
2024-03-04T20:31:37.874Z,7.90
2024-03-04T20:33:41.413Z,7.90
2024-03-04T20:35:45.357Z,8.00
2024-03-04T20:37:48.184Z,7.90
2024-03-04T20:39:50.965Z,7.90
2024-03-04T20:41:53.722Z,7.80
2024-03-04T20:43:56.500Z,7.80
2024-03-04T20:45:59.399Z,7.90
2024-03-04T20:48:03.715Z,8.00
2024-03-04T20:50:07.723Z,7.90
2024-03-04T20:52:10.602Z,7.90
2024-03-04T20:54:13.385Z,7.90
2024-03-04T20:56:16.673Z,7.90
2024-03-04T20:58:19.592Z,8.00
2024-03-04T21:00:22.553Z,8.00
2024-03-04T21:02:25.351Z,7.90
2024-03-04T21:04:28.520Z,7.90
2024-03-04T21:06:31.284Z,8.00
2024-03-04T21:08:34.017Z,8.00
2024-03-04T21:10:36.770Z,8.10
2024-03-04T21:12:38.678Z,7.90
2024-03-04T21:14:41.424Z,8.00
2024-03-04T21:16:44.201Z,8.00
2024-03-04T21:18:46.946Z,8.00
2024-03-04T21:20:51.018Z,8.00
2024-03-04T21:22:55.063Z,7.90
2024-03-04T21:24:57.918Z,8.00
2024-03-04T21:27:00.675Z,8.00
2024-03-04T21:29:03.428Z,7.80
2024-03-04T21:31:05.502Z,8.00
2024-03-04T21:33:08.306Z,7.90
2024-03-04T21:35:11.839Z,7.80
2024-03-04T21:37:21.369Z,8.00
2024-03-04T21:39:30.391Z,7.90
2024-03-04T21:41:33.136Z,8.00
2024-03-04T21:43:35.945Z,7.90
2024-03-04T21:45:38.739Z,7.90
2024-03-04T21:47:41.577Z,7.80
2024-03-04T21:49:44.449Z,8.00
2024-03-04T21:51:47.479Z,8.00
2024-03-04T21:53:51.608Z,8.00
2024-03-04T21:55:54.461Z,7.90
2024-03-04T21:57:59.229Z,8.00
2024-03-04T22:00:01.086Z,7.90
2024-03-04T22:02:05.634Z,7.80
2024-03-04T22:04:08.474Z,7.80
2024-03-04T22:06:19.561Z,7.80
2024-03-04T22:08:23.313Z,7.80
2024-03-04T22:10:27.751Z,7.80
2024-03-04T22:12:30.525Z,7.90
2024-03-04T22:14:32.303Z,7.90
2024-03-04T22:16:35.127Z,7.80
2024-03-04T22:18:37.969Z,7.90
2024-03-04T22:20:40.755Z,7.90
2024-03-04T22:22:43.586Z,7.90
2024-03-04T22:24:45.396Z,7.80
2024-03-04T22:26:50.165Z,7.80
2024-03-04T22:28:53.630Z,7.80
2024-03-04T22:30:56.979Z,7.90
2024-03-04T22:33:00.911Z,7.80
2024-03-04T22:35:04.033Z,7.90
2024-03-04T22:37:05.823Z,7.80
2024-03-04T22:39:10.505Z,7.90
2024-03-04T22:41:13.304Z,7.80
2024-03-04T22:43:19.483Z,7.80
2024-03-04T22:45:22.305Z,7.80
2024-03-04T22:47:25.102Z,7.90
2024-03-04T22:49:27.935Z,7.90
2024-03-04T22:51:29.909Z,7.90
2024-03-04T22:53:32.690Z,7.90
2024-03-04T22:55:35.496Z,7.90
2024-03-04T22:57:38.326Z,7.90
2024-03-04T22:59:42.761Z,7.90
2024-03-04T23:01:45.556Z,7.80
2024-03-04T23:03:48.399Z,7.90
2024-03-04T23:05:51.671Z,7.90
2024-03-04T23:07:54.958Z,7.90
2024-03-04T23:09:57.807Z,7.80
2024-03-04T23:11:59.620Z,7.80
2024-03-04T23:14:02.479Z,7.90
2024-03-04T23:16:09.980Z,7.90
2024-03-04T23:18:13.258Z,7.80
2024-03-04T23:20:15.233Z,7.90
2024-03-04T23:22:18.005Z,7.90
2024-03-04T23:24:20.754Z,7.90
2024-03-04T23:26:23.520Z,7.90
2024-03-04T23:28:26.322Z,7.90
2024-03-04T23:30:30.217Z,7.90
2024-03-04T23:32:35.364Z,7.90
2024-03-04T23:34:38.217Z,7.90
2024-03-04T23:36:40.090Z,7.90
2024-03-04T23:38:42.851Z,7.90
2024-03-04T23:40:45.636Z,7.90
2024-03-04T23:42:48.387Z,7.80
2024-03-04T23:44:50.218Z,7.90
2024-03-04T23:46:53.573Z,7.80
2024-03-04T23:48:57.716Z,7.90
2024-03-04T23:50:59.551Z,7.70
2024-03-04T23:53:02.454Z,7.90
2024-03-04T23:55:07.895Z,7.80
2024-03-04T23:57:10.673Z,7.90
2024-03-04T23:59:14.103Z,7.70
